sensor_id;sensor_type;location;lat;lon;timestamp;pressure;altitude;pressure_sealevel;temperature;humidity
81162;BME280;70638;-33.792;151.032;2023-07-08T00:01:57;100682.88;;;13.18;50.05
81162;BME280;70638;-33.792;151.032;2023-07-08T00:04:23;100692.19;;;13.20;50.25
81162;BME280;70638;-33.792;151.032;2023-07-08T00:06:54;100694.19;;;13.27;49.91
81162;BME280;70638;-33.792;151.032;2023-07-08T00:09:24;100683.48;;;13.34;50.68
81162;BME280;70638;-33.792;151.032;2023-07-08T00:11:55;100678.86;;;13.44;50.09
81162;BME280;70638;-33.792;151.032;2023-07-08T00:14:25;100683.67;;;13.44;48.90
81162;BME280;70638;-33.792;151.032;2023-07-08T00:16:55;100680.39;;;13.52;49.44
81162;BME280;70638;-33.792;151.032;2023-07-08T00:19:26;100675.27;;;13.75;49.58
81162;BME280;70638;-33.792;151.032;2023-07-08T00:21:56;100662.59;;;13.76;48.96
81162;BME280;70638;-33.792;151.032;2023-07-08T00:24:26;100662.28;;;13.77;49.10
81162;BME280;70638;-33.792;151.032;2023-07-08T00:26:56;100652.59;;;14.08;47.73
81162;BME280;70638;-33.792;151.032;2023-07-08T00:29:27;100653.45;;;14.08;47.36
81162;BME280;70638;-33.792;151.032;2023-07-08T00:31:57;100647.98;;;14.10;47.01
81162;BME280;70638;-33.792;151.032;2023-07-08T00:34:28;100641.22;;;14.20;46.61
81162;BME280;70638;-33.792;151.032;2023-07-08T00:37:02;100630.12;;;14.18;46.94
81162;BME280;70638;-33.792;151.032;2023-07-08T00:39:29;100620.19;;;14.24;45.28
81162;BME280;70638;-33.792;151.032;2023-07-08T00:42:00;100618.23;;;14.24;47.06
81162;BME280;70638;-33.792;151.032;2023-07-08T00:44:29;100614.52;;;14.34;46.08
81162;BME280;70638;-33.792;151.032;2023-07-08T00:47:07;100621.65;;;14.47;47.45
81162;BME280;70638;-33.792;151.032;2023-07-08T00:52:19;100610.28;;;14.77;46.37
81162;BME280;70638;-33.792;151.032;2023-07-08T00:54:30;100611.98;;;14.66;46.05
81162;BME280;70638;-33.792;151.032;2023-07-08T00:57:03;100597.14;;;14.61;45.39
81162;BME280;70638;-33.792;151.032;2023-07-08T00:59:52;100602.09;;;14.82;45.55
81162;BME280;70638;-33.792;151.032;2023-07-08T01:02:04;100597.30;;;14.99;45.41
81162;BME280;70638;-33.792;151.032;2023-07-08T01:04:35;100596.12;;;15.05;45.15
81162;BME280;70638;-33.792;151.032;2023-07-08T01:07:09;100598.61;;;14.96;44.24
81162;BME280;70638;-33.792;151.032;2023-07-08T01:09:41;100591.22;;;15.06;43.99
81162;BME280;70638;-33.792;151.032;2023-07-08T01:12:07;100585.09;;;15.19;41.08
81162;BME280;70638;-33.792;151.032;2023-07-08T01:14:36;100578.00;;;15.30;41.75
81162;BME280;70638;-33.792;151.032;2023-07-08T01:17:05;100568.28;;;15.35;42.48
81162;BME280;70638;-33.792;151.032;2023-07-08T01:19:36;100565.18;;;15.48;39.40
81162;BME280;70638;-33.792;151.032;2023-07-08T01:22:07;100554.87;;;15.65;41.33
81162;BME280;70638;-33.792;151.032;2023-07-08T01:24:38;100556.39;;;15.56;39.13
81162;BME280;70638;-33.792;151.032;2023-07-08T01:27:10;100554.27;;;15.65;40.14
81162;BME280;70638;-33.792;151.032;2023-07-08T01:29:37;100550.45;;;15.66;40.40
81162;BME280;70638;-33.792;151.032;2023-07-08T01:32:12;100545.12;;;15.64;40.36
81162;BME280;70638;-33.792;151.032;2023-07-08T01:34:38;100537.17;;;15.66;39.09
81162;BME280;70638;-33.792;151.032;2023-07-08T01:37:11;100537.75;;;15.65;40.31
81162;BME280;70638;-33.792;151.032;2023-07-08T01:39:42;100525.42;;;15.69;41.41
81162;BME280;70638;-33.792;151.032;2023-07-08T01:42:09;100521.17;;;16.00;39.21
81162;BME280;70638;-33.792;151.032;2023-07-08T01:44:39;100515.05;;;16.15;38.54
81162;BME280;70638;-33.792;151.032;2023-07-08T01:47:15;100504.64;;;16.09;39.36
81162;BME280;70638;-33.792;151.032;2023-07-08T01:49:42;100501.38;;;16.22;39.96
81162;BME280;70638;-33.792;151.032;2023-07-08T01:52:12;100492.06;;;16.49;35.99
81162;BME280;70638;-33.792;151.032;2023-07-08T01:54:41;100487.67;;;16.47;35.08
81162;BME280;70638;-33.792;151.032;2023-07-08T01:57:12;100472.67;;;16.35;36.46
81162;BME280;70638;-33.792;151.032;2023-07-08T01:59:42;100473.70;;;16.29;36.15
81162;BME280;70638;-33.792;151.032;2023-07-08T02:02:12;100473.18;;;16.59;34.66
81162;BME280;70638;-33.792;151.032;2023-07-08T02:04:43;100465.53;;;16.68;35.11
81162;BME280;70638;-33.792;151.032;2023-07-08T02:07:13;100462.65;;;16.62;34.34
81162;BME280;70638;-33.792;151.032;2023-07-08T02:09:43;100457.41;;;16.75;35.09
81162;BME280;70638;-33.792;151.032;2023-07-08T02:12:13;100454.64;;;16.72;35.91
81162;BME280;70638;-33.792;151.032;2023-07-08T02:14:45;100445.61;;;16.81;34.77
81162;BME280;70638;-33.792;151.032;2023-07-08T02:17:14;100433.92;;;16.72;34.43
81162;BME280;70638;-33.792;151.032;2023-07-08T02:19:44;100431.88;;;16.80;34.76
81162;BME280;70638;-33.792;151.032;2023-07-08T02:22:15;100426.60;;;16.82;36.76
81162;BME280;70638;-33.792;151.032;2023-07-08T02:24:45;100430.92;;;16.81;35.85
81162;BME280;70638;-33.792;151.032;2023-07-08T02:27:16;100432.19;;;16.76;39.03
81162;BME280;70638;-33.792;151.032;2023-07-08T02:29:46;100413.05;;;17.05;35.75
81162;BME280;70638;-33.792;151.032;2023-07-08T02:32:16;100407.48;;;16.94;37.68
81162;BME280;70638;-33.792;151.032;2023-07-08T02:34:47;100408.73;;;17.15;36.38
81162;BME280;70638;-33.792;151.032;2023-07-08T02:37:17;100413.55;;;17.19;35.60
81162;BME280;70638;-33.792;151.032;2023-07-08T02:39:47;100401.20;;;17.21;35.33
81162;BME280;70638;-33.792;151.032;2023-07-08T02:42:18;100397.66;;;17.19;36.04
81162;BME280;70638;-33.792;151.032;2023-07-08T02:44:48;100396.48;;;17.17;35.26
81162;BME280;70638;-33.792;151.032;2023-07-08T02:47:18;100402.79;;;17.03;36.08
81162;BME280;70638;-33.792;151.032;2023-07-08T02:49:53;100398.95;;;17.16;37.02
81162;BME280;70638;-33.792;151.032;2023-07-08T02:52:19;100398.77;;;17.15;38.30
81162;BME280;70638;-33.792;151.032;2023-07-08T02:54:49;100402.38;;;17.42;36.23
81162;BME280;70638;-33.792;151.032;2023-07-08T02:57:19;100393.05;;;17.31;35.66
81162;BME280;70638;-33.792;151.032;2023-07-08T02:59:50;100395.64;;;17.35;36.54
81162;BME280;70638;-33.792;151.032;2023-07-08T03:02:20;100384.14;;;17.28;37.04
81162;BME280;70638;-33.792;151.032;2023-07-08T03:04:51;100379.83;;;17.37;35.48
81162;BME280;70638;-33.792;151.032;2023-07-08T03:07:21;100366.92;;;17.45;36.38
81162;BME280;70638;-33.792;151.032;2023-07-08T03:09:51;100365.38;;;17.26;37.29
81162;BME280;70638;-33.792;151.032;2023-07-08T03:12:22;100365.96;;;17.59;35.02
81162;BME280;70638;-33.792;151.032;2023-07-08T03:14:52;100358.08;;;17.85;33.36
81162;BME280;70638;-33.792;151.032;2023-07-08T03:17:22;100364.80;;;17.73;34.93
81162;BME280;70638;-33.792;151.032;2023-07-08T03:19:53;100360.25;;;17.60;35.84
81162;BME280;70638;-33.792;151.032;2023-07-08T03:22:23;100355.98;;;17.54;33.59
81162;BME280;70638;-33.792;151.032;2023-07-08T03:27:24;100348.47;;;17.55;33.26
81162;BME280;70638;-33.792;151.032;2023-07-08T03:29:54;100355.73;;;17.68;32.95
81162;BME280;70638;-33.792;151.032;2023-07-08T03:32:25;100357.86;;;17.89;33.96
81162;BME280;70638;-33.792;151.032;2023-07-08T03:34:55;100349.98;;;17.74;36.05
81162;BME280;70638;-33.792;151.032;2023-07-08T03:37:25;100347.09;;;17.56;34.58
81162;BME280;70638;-33.792;151.032;2023-07-08T03:39:56;100345.67;;;17.82;32.75
81162;BME280;70638;-33.792;151.032;2023-07-08T03:42:26;100341.41;;;17.72;33.16
81162;BME280;70638;-33.792;151.032;2023-07-08T03:44:56;100336.44;;;17.78;33.66
81162;BME280;70638;-33.792;151.032;2023-07-08T03:47:27;100337.39;;;17.67;35.03
81162;BME280;70638;-33.792;151.032;2023-07-08T03:49:57;100337.61;;;17.80;34.36
81162;BME280;70638;-33.792;151.032;2023-07-08T03:52:27;100336.86;;;17.88;33.30
81162;BME280;70638;-33.792;151.032;2023-07-08T03:54:58;100327.55;;;17.90;34.06
81162;BME280;70638;-33.792;151.032;2023-07-08T03:57:28;100342.14;;;18.02;33.01
81162;BME280;70638;-33.792;151.032;2023-07-08T03:59:59;100329.34;;;18.12;33.13
81162;BME280;70638;-33.792;151.032;2023-07-08T04:02:29;100329.28;;;18.09;33.11
81162;BME280;70638;-33.792;151.032;2023-07-08T04:04:59;100332.12;;;18.06;32.03
81162;BME280;70638;-33.792;151.032;2023-07-08T04:07:30;100340.62;;;17.94;33.57
81162;BME280;70638;-33.792;151.032;2023-07-08T04:10:01;100333.67;;;17.92;32.48
81162;BME280;70638;-33.792;151.032;2023-07-08T04:12:31;100340.34;;;17.95;34.87
81162;BME280;70638;-33.792;151.032;2023-07-08T04:15:01;100339.21;;;17.90;32.80
81162;BME280;70638;-33.792;151.032;2023-07-08T04:17:31;100340.49;;;17.90;34.00
81162;BME280;70638;-33.792;151.032;2023-07-08T04:20:02;100335.84;;;17.93;34.59
81162;BME280;70638;-33.792;151.032;2023-07-08T04:22:32;100330.66;;;17.87;34.50
81162;BME280;70638;-33.792;151.032;2023-07-08T04:25:03;100325.42;;;17.84;35.59
81162;BME280;70638;-33.792;151.032;2023-07-08T04:27:33;100314.41;;;17.79;35.87
81162;BME280;70638;-33.792;151.032;2023-07-08T04:30:03;100310.80;;;17.82;37.15
81162;BME280;70638;-33.792;151.032;2023-07-08T04:32:34;100322.64;;;17.80;35.95
81162;BME280;70638;-33.792;151.032;2023-07-08T04:35:05;100313.34;;;17.82;35.09
81162;BME280;70638;-33.792;151.032;2023-07-08T04:37:40;100319.78;;;17.87;34.86
81162;BME280;70638;-33.792;151.032;2023-07-08T04:40:20;100325.27;;;17.69;35.51
81162;BME280;70638;-33.792;151.032;2023-07-08T04:42:37;100317.26;;;17.56;35.46
81162;BME280;70638;-33.792;151.032;2023-07-08T04:45:07;100324.98;;;17.75;34.36
81162;BME280;70638;-33.792;151.032;2023-07-08T04:47:38;100318.84;;;17.86;34.85
81162;BME280;70638;-33.792;151.032;2023-07-08T04:50:09;100327.11;;;17.73;34.83
81162;BME280;70638;-33.792;151.032;2023-07-08T04:52:39;100328.67;;;17.63;36.47
81162;BME280;70638;-33.792;151.032;2023-07-08T04:55:09;100315.55;;;17.66;36.36
81162;BME280;70638;-33.792;151.032;2023-07-08T04:57:39;100315.90;;;17.65;35.22
81162;BME280;70638;-33.792;151.032;2023-07-08T05:00:15;100314.34;;;17.66;36.40
81162;BME280;70638;-33.792;151.032;2023-07-08T05:02:41;100321.41;;;17.57;36.31
81162;BME280;70638;-33.792;151.032;2023-07-08T05:05:11;100336.64;;;17.63;36.51
81162;BME280;70638;-33.792;151.032;2023-07-08T05:07:42;100331.64;;;17.53;36.83
81162;BME280;70638;-33.792;151.032;2023-07-08T05:10:22;100333.61;;;17.46;36.47
81162;BME280;70638;-33.792;151.032;2023-07-08T05:12:42;100336.58;;;17.54;36.92
81162;BME280;70638;-33.792;151.032;2023-07-08T05:15:14;100349.17;;;17.61;36.05
81162;BME280;70638;-33.792;151.032;2023-07-08T05:17:44;100353.42;;;17.62;36.58
81162;BME280;70638;-33.792;151.032;2023-07-08T05:20:15;100355.80;;;17.54;37.58
81162;BME280;70638;-33.792;151.032;2023-07-08T05:22:44;100359.66;;;17.49;37.55
81162;BME280;70638;-33.792;151.032;2023-07-08T05:25:15;100370.40;;;17.38;36.64
81162;BME280;70638;-33.792;151.032;2023-07-08T05:27:48;100372.89;;;17.46;37.23
81162;BME280;70638;-33.792;151.032;2023-07-08T05:30:17;100369.17;;;17.43;37.86
81162;BME280;70638;-33.792;151.032;2023-07-08T05:32:46;100367.52;;;17.37;39.10
81162;BME280;70638;-33.792;151.032;2023-07-08T05:35:16;100368.41;;;17.51;38.16
81162;BME280;70638;-33.792;151.032;2023-07-08T05:37:47;100366.25;;;17.44;39.78
81162;BME280;70638;-33.792;151.032;2023-07-08T05:40:17;100373.53;;;17.40;39.57
81162;BME280;70638;-33.792;151.032;2023-07-08T05:42:47;100369.28;;;17.39;38.38
81162;BME280;70638;-33.792;151.032;2023-07-08T05:45:19;100370.55;;;17.40;39.54
81162;BME280;70638;-33.792;151.032;2023-07-08T05:47:48;100373.50;;;17.22;39.68
81162;BME280;70638;-33.792;151.032;2023-07-08T05:50:19;100371.70;;;17.01;40.55
81162;BME280;70638;-33.792;151.032;2023-07-08T05:52:49;100369.52;;;16.96;41.57
81162;BME280;70638;-33.792;151.032;2023-07-08T05:55:20;100373.11;;;16.80;41.00
81162;BME280;70638;-33.792;151.032;2023-07-08T05:57:50;100359.80;;;16.57;41.85
81162;BME280;70638;-33.792;151.032;2023-07-08T06:00:20;100363.45;;;16.58;41.83
81162;BME280;70638;-33.792;151.032;2023-07-08T06:02:50;100374.33;;;16.37;43.49
81162;BME280;70638;-33.792;151.032;2023-07-08T06:05:21;100375.84;;;16.37;43.20
81162;BME280;70638;-33.792;151.032;2023-07-08T06:07:51;100373.06;;;16.32;42.83
81162;BME280;70638;-33.792;151.032;2023-07-08T06:10:21;100372.74;;;16.29;42.73
81162;BME280;70638;-33.792;151.032;2023-07-08T06:12:51;100377.58;;;16.27;42.86
81162;BME280;70638;-33.792;151.032;2023-07-08T06:15:21;100372.02;;;16.18;43.63
81162;BME280;70638;-33.792;151.032;2023-07-08T06:17:52;100381.02;;;16.13;43.97
81162;BME280;70638;-33.792;151.032;2023-07-08T06:20:29;100390.45;;;16.03;43.74
81162;BME280;70638;-33.792;151.032;2023-07-08T06:22:52;100398.17;;;16.15;43.50
81162;BME280;70638;-33.792;151.032;2023-07-08T06:25:23;100402.28;;;15.94;44.05
81162;BME280;70638;-33.792;151.032;2023-07-08T06:27:53;100401.62;;;15.67;45.13
81162;BME280;70638;-33.792;151.032;2023-07-08T06:30:23;100400.53;;;15.71;45.49
81162;BME280;70638;-33.792;151.032;2023-07-08T06:32:54;100405.95;;;15.79;43.95
81162;BME280;70638;-33.792;151.032;2023-07-08T06:35:24;100411.78;;;15.82;44.26
81162;BME280;70638;-33.792;151.032;2023-07-08T06:37:54;100419.29;;;15.69;45.12
81162;BME280;70638;-33.792;151.032;2023-07-08T06:40:25;100418.67;;;15.58;45.04
81162;BME280;70638;-33.792;151.032;2023-07-08T06:42:55;100417.73;;;15.46;45.49
81162;BME280;70638;-33.792;151.032;2023-07-08T06:45:25;100422.63;;;15.19;46.36
81162;BME280;70638;-33.792;151.032;2023-07-08T06:47:56;100423.45;;;15.03;46.96
81162;BME280;70638;-33.792;151.032;2023-07-08T06:50:26;100420.48;;;15.12;47.20
81162;BME280;70638;-33.792;151.032;2023-07-08T06:52:57;100439.31;;;15.16;46.61
81162;BME280;70638;-33.792;151.032;2023-07-08T06:55:32;100446.70;;;15.24;46.18
81162;BME280;70638;-33.792;151.032;2023-07-08T06:57:58;100447.52;;;15.20;46.54
81162;BME280;70638;-33.792;151.032;2023-07-08T07:00:28;100450.19;;;14.98;48.22
81162;BME280;70638;-33.792;151.032;2023-07-08T07:02:59;100462.33;;;15.05;47.78
81162;BME280;70638;-33.792;151.032;2023-07-08T07:05:29;100460.39;;;15.18;47.13
81162;BME280;70638;-33.792;151.032;2023-07-08T07:08:00;100474.45;;;15.11;48.22
81162;BME280;70638;-33.792;151.032;2023-07-08T07:10:30;100478.42;;;15.18;48.78
81162;BME280;70638;-33.792;151.032;2023-07-08T07:13:01;100484.82;;;14.98;47.98
81162;BME280;70638;-33.792;151.032;2023-07-08T07:15:31;100486.31;;;14.87;48.43
81162;BME280;70638;-33.792;151.032;2023-07-08T07:18:01;100491.30;;;14.81;48.69
81162;BME280;70638;-33.792;151.032;2023-07-08T07:20:32;100505.23;;;14.98;48.32
81162;BME280;70638;-33.792;151.032;2023-07-08T07:23:02;100501.55;;;14.84;49.06
81162;BME280;70638;-33.792;151.032;2023-07-08T07:25:32;100493.64;;;14.83;49.19
81162;BME280;70638;-33.792;151.032;2023-07-08T07:28:02;100487.55;;;14.76;49.27
81162;BME280;70638;-33.792;151.032;2023-07-08T07:30:33;100486.19;;;14.73;49.73
81162;BME280;70638;-33.792;151.032;2023-07-08T07:33:03;100491.95;;;14.61;49.97
81162;BME280;70638;-33.792;151.032;2023-07-08T07:35:34;100490.44;;;14.50;50.21
81162;BME280;70638;-33.792;151.032;2023-07-08T07:38:04;100503.08;;;14.30;52.39
81162;BME280;70638;-33.792;151.032;2023-07-08T07:40:43;100507.27;;;14.21;51.44
81162;BME280;70638;-33.792;151.032;2023-07-08T07:43:04;100511.65;;;14.31;51.31
81162;BME280;70638;-33.792;151.032;2023-07-08T07:45:35;100523.44;;;14.36;51.33
81162;BME280;70638;-33.792;151.032;2023-07-08T07:48:06;100537.61;;;14.07;52.06
81162;BME280;70638;-33.792;151.032;2023-07-08T07:50:36;100531.28;;;14.20;51.96
81162;BME280;70638;-33.792;151.032;2023-07-08T07:53:06;100531.33;;;14.06;52.33
81162;BME280;70638;-33.792;151.032;2023-07-08T07:55:36;100540.16;;;14.00;52.94
81162;BME280;70638;-33.792;151.032;2023-07-08T07:58:07;100542.16;;;13.76;53.67
81162;BME280;70638;-33.792;151.032;2023-07-08T08:00:37;100556.59;;;13.90;53.04
81162;BME280;70638;-33.792;151.032;2023-07-08T08:03:08;100557.33;;;13.81;53.92
81162;BME280;70638;-33.792;151.032;2023-07-08T08:05:38;100560.95;;;13.77;54.21
81162;BME280;70638;-33.792;151.032;2023-07-08T08:08:08;100560.91;;;13.84;53.37
81162;BME280;70638;-33.792;151.032;2023-07-08T08:10:39;100558.95;;;13.74;54.28
81162;BME280;70638;-33.792;151.032;2023-07-08T08:13:09;100556.33;;;13.73;53.84
81162;BME280;70638;-33.792;151.032;2023-07-08T08:15:40;100544.90;;;13.70;54.30
81162;BME280;70638;-33.792;151.032;2023-07-08T08:18:10;100552.03;;;13.83;53.99
81162;BME280;70638;-33.792;151.032;2023-07-08T08:20:40;100563.58;;;13.71;54.12
81162;BME280;70638;-33.792;151.032;2023-07-08T08:23:10;100571.34;;;13.31;55.47
81162;BME280;70638;-33.792;151.032;2023-07-08T08:25:41;100567.31;;;13.19;55.92
81162;BME280;70638;-33.792;151.032;2023-07-08T08:28:11;100568.06;;;13.09;56.45
81162;BME280;70638;-33.792;151.032;2023-07-08T08:30:41;100564.61;;;12.97;57.47
81162;BME280;70638;-33.792;151.032;2023-07-08T08:33:11;100560.73;;;12.93;57.48
81162;BME280;70638;-33.792;151.032;2023-07-08T08:35:45;100561.01;;;12.87;58.59
81162;BME280;70638;-33.792;151.032;2023-07-08T08:38:13;100566.02;;;12.90;57.00
81162;BME280;70638;-33.792;151.032;2023-07-08T08:40:43;100568.73;;;12.72;57.84
81162;BME280;70638;-33.792;151.032;2023-07-08T08:43:30;100573.98;;;12.72;58.14
81162;BME280;70638;-33.792;151.032;2023-07-08T08:45:52;100571.48;;;12.83;56.63
81162;BME280;70638;-33.792;151.032;2023-07-08T08:48:17;100582.98;;;12.71;57.42
81162;BME280;70638;-33.792;151.032;2023-07-08T08:50:54;100593.41;;;12.68;57.75
81162;BME280;70638;-33.792;151.032;2023-07-08T08:53:18;100591.98;;;12.57;58.15
81162;BME280;70638;-33.792;151.032;2023-07-08T08:55:50;100592.75;;;12.52;57.92
81162;BME280;70638;-33.792;151.032;2023-07-08T08:58:41;100588.61;;;12.56;58.78
81162;BME280;70638;-33.792;151.032;2023-07-08T09:00:56;100584.75;;;12.70;57.12
81162;BME280;70638;-33.792;151.032;2023-07-08T09:03:24;100581.53;;;12.82;56.93
81162;BME280;70638;-33.792;151.032;2023-07-08T09:05:49;100587.64;;;12.85;55.93
81162;BME280;70638;-33.792;151.032;2023-07-08T09:08:31;100570.22;;;12.81;55.93
81162;BME280;70638;-33.792;151.032;2023-07-08T09:11:00;100568.11;;;12.82;55.81
81162;BME280;70638;-33.792;151.032;2023-07-08T09:13:27;100560.98;;;13.06;54.63
81162;BME280;70638;-33.792;151.032;2023-07-08T09:15:59;100575.09;;;13.14;53.68
81162;BME280;70638;-33.792;151.032;2023-07-08T09:18:30;100575.05;;;13.25;53.40
81162;BME280;70638;-33.792;151.032;2023-07-08T09:20:53;100578.44;;;13.24;53.08
81162;BME280;70638;-33.792;151.032;2023-07-08T09:23:30;100572.58;;;13.22;53.08
81162;BME280;70638;-33.792;151.032;2023-07-08T09:26:07;100577.23;;;13.43;51.72
81162;BME280;70638;-33.792;151.032;2023-07-08T09:28:37;100575.24;;;13.46;50.81
81162;BME280;70638;-33.792;151.032;2023-07-08T09:30:54;100566.40;;;13.63;50.12
81162;BME280;70638;-33.792;151.032;2023-07-08T09:33:24;100578.51;;;13.44;50.37
81162;BME280;70638;-33.792;151.032;2023-07-08T09:35:55;100571.11;;;13.46;50.00
81162;BME280;70638;-33.792;151.032;2023-07-08T09:38:25;100572.45;;;13.89;48.45
81162;BME280;70638;-33.792;151.032;2023-07-08T09:40:56;100588.67;;;13.45;50.23
81162;BME280;70638;-33.792;151.032;2023-07-08T09:43:34;100592.50;;;13.49;49.37
81162;BME280;70638;-33.792;151.032;2023-07-08T09:46:00;100580.67;;;13.91;47.84
81162;BME280;70638;-33.792;151.032;2023-07-08T09:48:35;100569.66;;;13.88;47.32
81162;BME280;70638;-33.792;151.032;2023-07-08T09:50:58;100576.95;;;13.64;48.96
81162;BME280;70638;-33.792;151.032;2023-07-08T09:53:28;100573.12;;;13.78;47.60
81162;BME280;70638;-33.792;151.032;2023-07-08T09:55:59;100579.11;;;13.86;47.25
81162;BME280;70638;-33.792;151.032;2023-07-08T09:58:32;100588.56;;;13.93;47.39
81162;BME280;70638;-33.792;151.032;2023-07-08T10:01:05;100594.36;;;13.79;47.79
81162;BME280;70638;-33.792;151.032;2023-07-08T10:03:32;100596.01;;;13.87;47.13
81162;BME280;70638;-33.792;151.032;2023-07-08T10:08:43;100592.88;;;13.67;48.68
81162;BME280;70638;-33.792;151.032;2023-07-08T10:11:08;100598.16;;;13.73;47.80
81162;BME280;70638;-33.792;151.032;2023-07-08T10:13:44;100597.72;;;13.55;48.31
81162;BME280;70638;-33.792;151.032;2023-07-08T10:16:15;100605.23;;;13.70;48.14
81162;BME280;70638;-33.792;151.032;2023-07-08T10:18:33;100602.80;;;13.89;47.59
81162;BME280;70638;-33.792;151.032;2023-07-08T10:21:12;100603.44;;;13.59;48.41
81162;BME280;70638;-33.792;151.032;2023-07-08T10:23:44;100611.41;;;13.70;48.25
81162;BME280;70638;-33.792;151.032;2023-07-08T10:26:29;100611.59;;;13.40;49.40
81162;BME280;70638;-33.792;151.032;2023-07-08T10:28:44;100602.09;;;13.39;49.13
81162;BME280;70638;-33.792;151.032;2023-07-08T10:36:35;100628.42;;;13.34;48.82
81162;BME280;70638;-33.792;151.032;2023-07-08T10:38:54;100627.30;;;13.20;49.60
81162;BME280;70638;-33.792;151.032;2023-07-08T10:43:52;100644.31;;;12.83;51.22
81162;BME280;70638;-33.792;151.032;2023-07-08T10:46:26;100653.84;;;13.06;50.54
81162;BME280;70638;-33.792;151.032;2023-07-08T10:48:53;100664.19;;;13.02;50.31
81162;BME280;70638;-33.792;151.032;2023-07-08T10:51:34;100656.05;;;12.77;51.25
81162;BME280;70638;-33.792;151.032;2023-07-08T10:56:20;100660.76;;;13.10;50.37
81162;BME280;70638;-33.792;151.032;2023-07-08T10:59:06;100661.45;;;13.06;50.46
81162;BME280;70638;-33.792;151.032;2023-07-08T11:01:32;100672.95;;;12.89;50.46
81162;BME280;70638;-33.792;151.032;2023-07-08T11:03:55;100668.62;;;13.05;50.08
81162;BME280;70638;-33.792;151.032;2023-07-08T11:06:15;100681.22;;;12.90;51.10
81162;BME280;70638;-33.792;151.032;2023-07-08T11:08:51;100681.74;;;13.07;50.75
81162;BME280;70638;-33.792;151.032;2023-07-08T11:11:45;100679.66;;;13.16;50.15
81162;BME280;70638;-33.792;151.032;2023-07-08T11:13:50;100680.17;;;12.83;50.54
81162;BME280;70638;-33.792;151.032;2023-07-08T11:16:27;100684.94;;;12.90;49.78
81162;BME280;70638;-33.792;151.032;2023-07-08T11:21:17;100702.97;;;12.35;52.73
81162;BME280;70638;-33.792;151.032;2023-07-08T11:23:48;100705.16;;;12.26;52.21
81162;BME280;70638;-33.792;151.032;2023-07-08T11:26:20;100706.59;;;12.11;53.27
81162;BME280;70638;-33.792;151.032;2023-07-08T11:28:46;100708.95;;;12.27;52.78
81162;BME280;70638;-33.792;151.032;2023-07-08T11:31:17;100707.40;;;11.96;53.53
81162;BME280;70638;-33.792;151.032;2023-07-08T11:33:48;100718.56;;;11.70;54.80
81162;BME280;70638;-33.792;151.032;2023-07-08T11:36:17;100720.58;;;11.62;55.00
81162;BME280;70638;-33.792;151.032;2023-07-08T11:38:53;100721.87;;;11.76;53.80
81162;BME280;70638;-33.792;151.032;2023-07-08T11:41:19;100725.34;;;11.63;54.51
81162;BME280;70638;-33.792;151.032;2023-07-08T11:43:53;100730.24;;;11.48;55.65
81162;BME280;70638;-33.792;151.032;2023-07-08T11:46:23;100720.02;;;11.43;56.98
81162;BME280;70638;-33.792;151.032;2023-07-08T11:48:51;100711.46;;;11.40;56.85
81162;BME280;70638;-33.792;151.032;2023-07-08T11:51:23;100702.50;;;11.26;56.71
81162;BME280;70638;-33.792;151.032;2023-07-08T11:54:00;100710.34;;;11.31;56.59
81162;BME280;70638;-33.792;151.032;2023-07-08T11:56:22;100710.64;;;11.21;56.16
81162;BME280;70638;-33.792;151.032;2023-07-08T11:58:59;100714.00;;;11.29;56.30
81162;BME280;70638;-33.792;151.032;2023-07-08T12:01:27;100707.83;;;11.31;55.51
81162;BME280;70638;-33.792;151.032;2023-07-08T12:03:59;100715.83;;;11.17;56.13
81162;BME280;70638;-33.792;151.032;2023-07-08T12:06:42;100701.78;;;11.06;56.77
81162;BME280;70638;-33.792;151.032;2023-07-08T12:08:53;100692.39;;;10.93;57.07
81162;BME280;70638;-33.792;151.032;2023-07-08T12:11:28;100686.95;;;10.78;58.21
81162;BME280;70638;-33.792;151.032;2023-07-08T12:13:54;100687.28;;;10.72;57.73
81162;BME280;70638;-33.792;151.032;2023-07-08T12:16:25;100685.02;;;10.68;59.57
81162;BME280;70638;-33.792;151.032;2023-07-08T12:18:54;100684.68;;;10.68;58.20
81162;BME280;70638;-33.792;151.032;2023-07-08T12:21:26;100682.77;;;10.65;58.20
81162;BME280;70638;-33.792;151.032;2023-07-08T12:23:55;100691.44;;;10.62;58.70
81162;BME280;70638;-33.792;151.032;2023-07-08T12:26:25;100697.07;;;10.62;58.84
81162;BME280;70638;-33.792;151.032;2023-07-08T12:29:01;100682.06;;;10.67;59.20
81162;BME280;70638;-33.792;151.032;2023-07-08T12:31:27;100677.88;;;10.68;58.62
81162;BME280;70638;-33.792;151.032;2023-07-08T12:33:58;100680.22;;;10.67;58.68
81162;BME280;70638;-33.792;151.032;2023-07-08T12:36:28;100676.75;;;10.71;58.33
81162;BME280;70638;-33.792;151.032;2023-07-08T12:38:59;100677.75;;;10.80;58.52
81162;BME280;70638;-33.792;151.032;2023-07-08T12:41:31;100676.77;;;10.78;58.46
81162;BME280;70638;-33.792;151.032;2023-07-08T12:44:01;100667.89;;;10.84;58.35
81162;BME280;70638;-33.792;151.032;2023-07-08T12:46:30;100663.71;;;10.88;57.59
81162;BME280;70638;-33.792;151.032;2023-07-08T12:49:00;100663.78;;;11.11;57.12
81162;BME280;70638;-33.792;151.032;2023-07-08T12:51:31;100658.82;;;11.20;56.70
81162;BME280;70638;-33.792;151.032;2023-07-08T12:54:01;100656.11;;;11.18;56.29
81162;BME280;70638;-33.792;151.032;2023-07-08T12:56:32;100655.16;;;11.29;56.35